createdAt,value
2019-06-20T00:01:25.598Z,45.80
2019-06-20T00:03:53.815Z,51.50
2019-06-20T00:06:21.946Z,52.30
2019-06-20T00:08:50.112Z,57.07
2019-06-20T00:11:18.245Z,58.17
2019-06-20T00:13:46.442Z,60.53
2019-06-20T00:16:14.695Z,65.47
2019-06-20T00:18:42.996Z,67.87
2019-06-20T00:21:11.206Z,62.23
2019-06-20T00:23:39.436Z,62.10
2019-06-20T00:26:07.656Z,61.93
2019-06-20T00:28:35.804Z,63.93
2019-06-20T00:31:04.134Z,65.20
2019-06-20T00:33:32.335Z,62.63
2019-06-20T00:36:00.476Z,65.63
2019-06-20T00:38:28.640Z,68.00
2019-06-20T00:40:56.780Z,68.37
2019-06-20T00:43:24.925Z,76.23
2019-06-20T00:45:53.070Z,77.67
2019-06-20T00:48:21.290Z,70.60
2019-06-20T00:50:49.450Z,82.83
2019-06-20T00:53:17.587Z,74.03
2019-06-20T00:55:45.760Z,75.77
2019-06-20T00:58:13.918Z,83.80
2019-06-20T01:00:42.346Z,94.22
2019-06-20T01:03:10.494Z,82.73
2019-06-20T01:05:38.646Z,99.20
2019-06-20T01:08:06.793Z,93.40
2019-06-20T01:10:34.937Z,84.37
2019-06-20T01:13:03.118Z,85.53
2019-06-20T01:15:31.244Z,87.87
2019-06-20T01:17:59.385Z,87.50
2019-06-20T01:20:27.603Z,95.07
2019-06-20T01:22:55.756Z,91.83
2019-06-20T01:25:37.012Z,105.77
2019-06-20T01:28:05.276Z,103.43
2019-06-20T01:30:33.419Z,111.90
2019-06-20T01:33:01.565Z,109.13
2019-06-20T01:35:29.714Z,100.47
2019-06-20T01:37:57.863Z,100.87
2019-06-20T01:40:26.094Z,107.00
2019-06-20T01:42:54.246Z,97.53
2019-06-20T01:45:23.962Z,89.70
2019-06-20T01:47:52.101Z,89.07
2019-06-20T01:50:20.314Z,85.27
2019-06-20T01:52:48.463Z,82.27
2019-06-20T01:55:16.620Z,87.43
2019-06-20T01:57:44.865Z,90.90
2019-06-20T02:00:14.655Z,85.63
2019-06-20T02:02:42.855Z,81.40
2019-06-20T02:05:11.009Z,90.77
2019-06-20T02:07:39.168Z,91.53
2019-06-20T02:10:07.382Z,94.47
2019-06-20T02:12:35.556Z,92.93
2019-06-20T02:15:04.360Z,94.47
2019-06-20T02:17:32.508Z,90.00
2019-06-20T02:20:00.691Z,88.87
2019-06-20T02:22:28.835Z,92.57
2019-06-20T02:24:56.969Z,87.70
2019-06-20T02:27:25.115Z,78.13
2019-06-20T02:29:53.271Z,81.83
2019-06-20T02:32:21.421Z,87.40
2019-06-20T02:34:49.560Z,87.93
2019-06-20T02:37:17.734Z,92.40
2019-06-20T02:39:47.550Z,92.83
2019-06-20T02:42:15.773Z,85.10
2019-06-20T02:44:43.919Z,83.37
2019-06-20T02:47:12.092Z,83.67
2019-06-20T02:49:40.232Z,88.93
2019-06-20T02:52:08.588Z,87.27
2019-06-20T02:54:36.989Z,91.33
2019-06-20T02:57:05.139Z,93.57
2019-06-20T02:59:34.373Z,97.33
2019-06-20T03:02:02.511Z,90.03
2019-06-20T03:04:30.675Z,87.73
2019-06-20T03:06:58.970Z,101.73
2019-06-20T03:09:27.220Z,91.83
2019-06-20T03:11:55.410Z,85.43
2019-06-20T03:14:23.559Z,90.83
2019-06-20T03:16:51.725Z,92.57
2019-06-20T03:19:19.863Z,92.00
2019-06-20T03:21:48.031Z,93.67
2019-06-20T03:24:16.175Z,90.57
2019-06-20T03:26:44.339Z,90.13
2019-06-20T03:29:12.530Z,99.07
2019-06-20T03:31:40.756Z,102.47
2019-06-20T03:34:08.931Z,95.17
2019-06-20T03:36:37.080Z,92.53
2019-06-20T03:39:06.501Z,97.43
2019-06-20T03:41:34.714Z,94.70
2019-06-20T03:44:02.869Z,87.27
2019-06-20T03:46:31.019Z,95.50
2019-06-20T03:48:59.168Z,103.17
2019-06-20T03:51:27.307Z,90.90
2019-06-20T03:53:55.458Z,95.77
2019-06-20T03:56:23.619Z,93.33
2019-06-20T03:58:51.762Z,96.30
2019-06-20T04:01:19.940Z,100.67
2019-06-20T04:03:49.142Z,92.00
2019-06-20T04:06:17.424Z,95.27
2019-06-20T04:08:45.642Z,85.73
2019-06-20T04:11:13.814Z,96.20
2019-06-20T04:13:41.986Z,97.00
2019-06-20T04:16:10.984Z,98.13
2019-06-20T04:18:39.151Z,96.00
2019-06-20T04:21:07.313Z,101.83
2019-06-20T04:23:35.583Z,90.47
2019-06-20T04:26:03.768Z,95.47
2019-06-20T04:28:32.694Z,94.27
2019-06-20T04:31:00.868Z,100.27
2019-06-20T04:33:29.570Z,94.87
2019-06-20T04:35:57.719Z,99.53
2019-06-20T04:38:25.957Z,82.23
2019-06-20T04:40:54.681Z,101.37
2019-06-20T04:43:22.826Z,111.30
2019-06-20T04:45:58.665Z,97.80
2019-06-20T04:48:26.800Z,97.43
2019-06-20T04:50:54.961Z,100.60
2019-06-20T04:53:23.195Z,105.33
2019-06-20T04:55:51.407Z,106.33
2019-06-20T04:58:22.584Z,103.73
2019-06-20T05:00:50.731Z,95.57
2019-06-20T05:03:19.691Z,106.43
2019-06-20T05:05:47.864Z,100.27
2019-06-20T05:08:16.028Z,103.47
2019-06-20T05:10:44.259Z,110.67
2019-06-20T05:13:12.410Z,105.40
2019-06-20T05:15:51.941Z,116.60
2019-06-20T05:18:10.476Z,115.23
2019-06-20T05:20:38.674Z,121.10
2019-06-20T05:23:06.846Z,133.30
2019-06-20T05:25:35.072Z,130.47
2019-06-20T05:28:03.292Z,135.60
2019-06-20T05:30:31.440Z,130.63
2019-06-20T05:32:59.625Z,142.47
2019-06-20T05:35:27.786Z,132.60
2019-06-20T05:37:56.024Z,140.23
2019-06-20T05:40:24.182Z,144.13
2019-06-20T05:42:52.643Z,138.37
2019-06-20T05:45:20.951Z,141.90
2019-06-20T05:47:49.916Z,151.33
2019-06-20T05:50:18.304Z,131.80
2019-06-20T05:52:46.555Z,126.37
2019-06-20T05:55:15.390Z,118.90
2019-06-20T05:57:43.589Z,135.57
2019-06-20T06:00:12.131Z,124.03
2019-06-20T06:02:40.385Z,119.00
2019-06-20T06:05:08.576Z,110.43
2019-06-20T06:07:36.741Z,111.23
2019-06-20T06:10:06.437Z,112.90
2019-06-20T06:12:36.303Z,106.50
2019-06-20T06:15:06.433Z,97.87
2019-06-20T06:17:35.613Z,104.27
2019-06-20T06:20:07.116Z,109.33
2019-06-20T06:22:35.328Z,105.47
2019-06-20T06:25:03.966Z,101.57
2019-06-20T06:27:32.167Z,103.00
2019-06-20T06:30:00.325Z,96.90
2019-06-20T06:32:39.666Z,97.90
2019-06-20T06:34:58.343Z,96.43
2019-06-20T06:37:26.480Z,94.40
2019-06-20T06:39:54.614Z,93.43
2019-06-20T06:42:22.754Z,95.47
2019-06-20T06:44:50.936Z,102.00
2019-06-20T06:47:19.129Z,88.07
2019-06-20T06:49:47.336Z,89.23
2019-06-20T06:52:15.496Z,86.13
2019-06-20T06:54:43.747Z,99.43
2019-06-20T06:57:11.971Z,88.07
2019-06-20T06:59:40.199Z,86.90
2019-06-20T07:02:08.395Z,83.97
2019-06-20T07:04:36.530Z,82.07
2019-06-20T07:07:04.676Z,74.93
2019-06-20T07:09:35.502Z,76.60
2019-06-20T07:12:03.740Z,70.63
2019-06-20T07:14:31.955Z,68.53
2019-06-20T07:17:00.837Z,62.33
2019-06-20T07:19:29.222Z,57.67
2019-06-20T07:21:57.372Z,57.47
2019-06-20T07:24:25.540Z,53.93
2019-06-20T07:26:53.745Z,56.93
2019-06-20T07:29:23.434Z,55.80
2019-06-20T07:31:51.636Z,51.97
2019-06-20T07:34:19.767Z,53.90
2019-06-20T07:36:47.938Z,43.87
2019-06-20T07:39:16.084Z,40.70
2019-06-20T07:41:44.229Z,43.20
2019-06-20T07:44:12.388Z,43.80
2019-06-20T07:46:40.535Z,44.33
2019-06-20T07:49:08.764Z,47.43
2019-06-20T07:51:36.908Z,42.63
2019-06-20T07:54:05.195Z,45.87
2019-06-20T07:56:33.341Z,41.73
2019-06-20T07:59:01.499Z,41.10
2019-06-20T08:01:29.646Z,36.83
2019-06-20T08:03:57.795Z,40.97
2019-06-20T08:06:25.961Z,37.77
2019-06-20T08:08:54.102Z,40.60
2019-06-20T08:11:22.275Z,41.17
2019-06-20T08:13:50.415Z,41.33
2019-06-20T08:16:18.555Z,47.33
2019-06-20T08:18:46.701Z,37.30
2019-06-20T08:21:14.846Z,33.27
2019-06-20T08:23:43.020Z,48.80
2019-06-20T08:26:11.250Z,32.43
2019-06-20T08:28:39.489Z,30.17
2019-06-20T08:31:07.625Z,32.40
2019-06-20T08:33:35.767Z,31.67
2019-06-20T08:36:04.597Z,30.83
2019-06-20T08:38:32.916Z,31.57
2019-06-20T08:41:02.141Z,33.33
2019-06-20T08:43:30.768Z,36.23
2019-06-20T08:45:59.553Z,32.70
2019-06-20T08:48:28.639Z,34.93
2019-06-20T08:50:58.506Z,32.47
2019-06-20T08:53:26.767Z,45.07
2019-06-20T08:55:56.292Z,33.93
2019-06-20T08:58:26.503Z,28.33
2019-06-20T09:00:55.980Z,32.10
2019-06-20T09:03:24.757Z,29.93
2019-06-20T09:05:54.908Z,30.97
2019-06-20T09:08:22.860Z,33.27
2019-06-20T09:10:51.022Z,35.50
2019-06-20T09:13:19.186Z,29.20
2019-06-20T09:15:50.243Z,32.40
2019-06-20T09:18:18.431Z,31.43
2019-06-20T09:20:46.618Z,28.87
2019-06-20T09:23:14.770Z,28.57
2019-06-20T09:25:42.936Z,28.70
2019-06-20T09:28:11.069Z,29.17
2019-06-20T09:30:39.275Z,27.57
2019-06-20T09:33:07.524Z,27.63
2019-06-20T09:35:35.917Z,28.60
2019-06-20T09:38:04.437Z,22.77
2019-06-20T09:40:32.838Z,27.50
2019-06-20T09:43:01.074Z,28.07
2019-06-20T09:45:29.222Z,29.80
2019-06-20T09:47:58.290Z,27.40
2019-06-20T09:50:26.588Z,26.07
2019-06-20T09:52:55.375Z,27.20
2019-06-20T09:55:24.779Z,25.87
2019-06-20T09:57:53.761Z,24.23
2019-06-20T10:00:23.670Z,25.27
2019-06-20T10:02:52.430Z,25.97
2019-06-20T10:05:22.030Z,24.53
2019-06-20T10:07:50.392Z,24.07
2019-06-20T10:10:18.634Z,25.93
2019-06-20T10:12:47.967Z,25.37
2019-06-20T10:15:17.910Z,23.83
2019-06-20T10:17:47.369Z,24.83
2019-06-20T10:20:16.103Z,24.70
2019-06-20T10:22:45.566Z,27.63
2019-06-20T10:25:14.174Z,22.60
2019-06-20T10:27:42.450Z,26.77
2019-06-20T10:30:14.566Z,21.50
2019-06-20T10:32:40.716Z,27.50
2019-06-20T10:35:08.854Z,25.03
2019-06-20T10:37:36.997Z,26.33
2019-06-20T10:40:06.127Z,21.43
2019-06-20T10:42:34.271Z,22.23
2019-06-20T10:45:21.771Z,23.70
2019-06-20T10:47:50.977Z,20.30
2019-06-20T10:50:19.476Z,23.70
2019-06-20T10:52:48.173Z,22.60
2019-06-20T10:55:17.666Z,22.47
2019-06-20T10:57:46.729Z,21.60
2019-06-20T11:00:29.709Z,19.53
2019-06-20T11:02:47.067Z,22.40
2019-06-20T11:05:15.390Z,24.07
2019-06-20T11:07:43.835Z,23.70
2019-06-20T11:10:13.142Z,22.50
2019-06-20T11:12:47.832Z,24.20
2019-06-20T11:15:11.509Z,21.57
2019-06-20T11:17:40.324Z,21.93
2019-06-20T11:20:09.335Z,24.27
2019-06-20T11:22:38.395Z,21.47
2019-06-20T11:25:08.110Z,24.13
2019-06-20T11:27:37.659Z,19.33
2019-06-20T11:30:13.823Z,21.10
2019-06-20T11:32:41.966Z,23.80
2019-06-20T11:35:10.176Z,23.67
2019-06-20T11:37:39.630Z,26.13
2019-06-20T11:40:08.005Z,22.13
2019-06-20T11:42:37.712Z,20.17
2019-06-20T11:45:06.279Z,20.57
2019-06-20T11:47:35.491Z,24.90
2019-06-20T11:52:48.614Z,18.13
2019-06-20T11:55:16.838Z,16.83
2019-06-20T11:57:45.042Z,13.27
2019-06-20T12:00:13.674Z,12.20
2019-06-20T12:02:42.793Z,17.53
2019-06-20T12:05:12.147Z,13.60
2019-06-20T12:07:41.640Z,15.23
2019-06-20T12:10:10.646Z,11.50
2019-06-20T12:12:39.564Z,10.37
2019-06-20T12:15:09.267Z,9.73
2019-06-20T12:17:39.302Z,8.97
2019-06-20T12:20:07.761Z,7.23
2019-06-20T12:22:35.939Z,5.50
2019-06-20T12:25:07.355Z,3.30
2019-06-20T12:27:35.588Z,12.33
2019-06-20T12:30:05.591Z,6.70
2019-06-20T12:32:33.734Z,4.67
2019-06-20T12:35:01.919Z,2.67
2019-06-20T12:37:30.114Z,3.20
2019-06-20T12:39:58.648Z,1.73
2019-06-20T12:42:26.788Z,2.13
2019-06-20T12:44:54.983Z,1.80
2019-06-20T12:47:23.131Z,2.20
2019-06-20T12:49:51.250Z,1.40
2019-06-20T12:52:19.402Z,1.77
2019-06-20T12:54:47.534Z,4.27
2019-06-20T12:57:15.679Z,1.67
2019-06-20T12:59:44.586Z,3.10
2019-06-20T13:02:12.935Z,2.60
2019-06-20T13:04:41.660Z,2.83
2019-06-20T13:07:09.917Z,3.23
2019-06-20T13:09:39.451Z,4.50
2019-06-20T13:12:08.028Z,4.17
2019-06-20T13:14:36.159Z,3.40
2019-06-20T13:17:04.310Z,5.30
2019-06-20T13:19:32.474Z,7.03
2019-06-20T13:22:00.631Z,4.30
2019-06-20T13:24:28.772Z,3.90
2019-06-20T13:26:56.945Z,5.17
2019-06-20T13:29:25.086Z,6.10
2019-06-20T13:32:03.484Z,6.80
2019-06-20T13:34:23.109Z,4.07
2019-06-20T13:36:51.243Z,5.50
2019-06-20T13:39:19.419Z,6.03
2019-06-20T13:41:48.027Z,4.17
2019-06-20T13:44:17.541Z,2.70
2019-06-20T13:46:46.559Z,5.13
2019-06-20T13:49:14.809Z,6.07
2019-06-20T13:51:43.355Z,5.37
2019-06-20T13:54:11.656Z,3.83
2019-06-20T13:56:39.812Z,5.03
2019-06-20T13:59:10.116Z,5.50
2019-06-20T14:01:37.920Z,5.07
2019-06-20T14:04:06.058Z,7.63
2019-06-20T14:06:34.207Z,4.80
2019-06-20T14:09:02.447Z,6.37
2019-06-20T14:11:30.643Z,4.30
2019-06-20T14:13:58.854Z,6.03
2019-06-20T14:16:27.006Z,4.03
2019-06-20T14:18:55.177Z,4.93
2019-06-20T14:21:23.648Z,5.47
2019-06-20T14:23:53.739Z,7.20
2019-06-20T14:26:21.646Z,8.77
2019-06-20T14:28:51.109Z,7.40
2019-06-20T14:31:19.423Z,6.50
2019-06-20T14:33:48.487Z,7.63
2019-06-20T14:36:16.800Z,7.20
2019-06-20T14:38:45.771Z,7.97
2019-06-20T14:41:14.074Z,5.27
2019-06-20T14:43:42.745Z,12.97
2019-06-20T14:46:12.090Z,8.90
2019-06-20T14:48:40.248Z,6.33
2019-06-20T14:51:08.387Z,5.93
2019-06-20T14:53:36.535Z,9.40
2019-06-20T14:56:04.767Z,4.37
2019-06-20T14:58:32.971Z,7.83
2019-06-20T15:01:01.111Z,9.67
2019-06-20T15:03:29.259Z,5.40
2019-06-20T15:05:57.423Z,5.87
2019-06-20T15:08:26.863Z,6.13
2019-06-20T15:10:55.006Z,7.17
2019-06-20T15:13:23.174Z,6.83
2019-06-20T15:15:51.530Z,7.07
2019-06-20T15:18:19.663Z,7.80
2019-06-20T15:20:48.710Z,7.27
2019-06-20T15:23:17.664Z,6.17
2019-06-20T15:25:46.966Z,5.50
2019-06-20T15:28:15.657Z,8.93
2019-06-20T15:30:43.810Z,7.93
2019-06-20T15:33:12.052Z,6.77
2019-06-20T15:35:40.204Z,9.70
2019-06-20T15:38:08.351Z,7.47
2019-06-20T15:40:36.551Z,7.60
2019-06-20T15:43:04.720Z,7.57
2019-06-20T15:45:32.946Z,7.20
2019-06-20T15:48:01.175Z,8.27
2019-06-20T15:50:29.337Z,7.80
2019-06-20T15:52:57.477Z,6.07
2019-06-20T15:55:26.223Z,5.90
2019-06-20T15:57:54.540Z,8.83
2019-06-20T16:00:22.817Z,10.00
2019-06-20T16:02:50.984Z,7.50
2019-06-20T16:05:19.220Z,30.30
2019-06-20T16:07:47.501Z,9.90
2019-06-20T16:10:15.835Z,22.77
2019-06-20T16:12:44.077Z,18.93
2019-06-20T16:15:13.774Z,8.87
2019-06-20T16:17:42.040Z,17.13
2019-06-20T16:20:10.186Z,8.30
2019-06-20T16:22:38.386Z,18.00
2019-06-20T16:25:06.545Z,11.33
2019-06-20T16:27:34.778Z,5.90
2019-06-20T16:30:03.485Z,6.97
2019-06-20T16:32:31.683Z,8.17
2019-06-20T16:34:59.835Z,7.73
2019-06-20T16:37:27.975Z,9.37
2019-06-20T16:39:56.162Z,7.53
2019-06-20T16:42:24.363Z,10.50
2019-06-20T16:44:52.515Z,7.57
2019-06-20T16:47:20.744Z,7.97
2019-06-20T16:49:48.974Z,15.20
2019-06-20T16:52:17.178Z,6.03
2019-06-20T16:54:46.247Z,10.90
2019-06-20T16:57:14.384Z,12.13
2019-06-20T16:59:42.549Z,8.73
2019-06-20T17:02:10.763Z,10.30
2019-06-20T17:04:38.915Z,6.60
2019-06-20T17:07:07.175Z,11.87
2019-06-20T17:09:35.396Z,14.07
2019-06-20T17:12:04.853Z,10.97
2019-06-20T17:14:33.019Z,12.27
2019-06-20T17:17:01.264Z,10.03
2019-06-20T17:19:29.413Z,9.33
2019-06-20T17:21:57.582Z,10.57
2019-06-20T17:24:25.786Z,11.53
2019-06-20T17:26:54.176Z,11.93
2019-06-20T17:29:22.319Z,14.13
2019-06-20T17:31:51.320Z,16.80
2019-06-20T17:34:19.523Z,15.23
2019-06-20T17:36:47.749Z,16.63
2019-06-20T17:39:16.513Z,21.30
2019-06-20T17:41:54.736Z,22.30
2019-06-20T17:44:14.559Z,20.40
2019-06-20T17:46:42.800Z,21.13
2019-06-20T17:49:10.947Z,19.20
2019-06-20T17:51:39.111Z,22.83
2019-06-20T17:54:07.281Z,21.87
2019-06-20T17:56:35.568Z,21.20
2019-06-20T17:59:03.918Z,19.73
2019-06-20T18:01:35.799Z,22.37
2019-06-20T18:04:13.287Z,28.03
2019-06-20T18:06:31.882Z,20.83
2019-06-20T18:09:00.043Z,21.57
2019-06-20T18:11:28.257Z,24.30
2019-06-20T18:13:56.415Z,25.10
2019-06-20T18:16:25.550Z,23.27
2019-06-20T18:18:53.805Z,21.87
2019-06-20T18:21:21.962Z,25.93
2019-06-20T18:23:50.091Z,21.13
2019-06-20T18:26:18.258Z,24.87
2019-06-20T18:28:46.407Z,25.80
2019-06-20T18:31:14.578Z,27.17
2019-06-20T18:33:42.721Z,22.57
2019-06-20T18:36:10.863Z,21.20
2019-06-20T18:38:39.035Z,21.70
2019-06-20T18:41:07.859Z,21.73
2019-06-20T18:43:36.000Z,24.73
2019-06-20T18:46:04.268Z,19.60
2019-06-20T18:48:32.465Z,21.43
2019-06-20T18:51:00.753Z,23.40
2019-06-20T18:53:28.904Z,21.30
2019-06-20T18:55:57.127Z,20.70
2019-06-20T18:58:25.291Z,21.87
2019-06-20T19:00:53.455Z,20.50
2019-06-20T19:03:21.744Z,22.03
2019-06-20T19:05:49.896Z,19.50
2019-06-20T19:08:18.039Z,23.60
2019-06-20T19:10:46.198Z,20.03
2019-06-20T19:13:14.331Z,21.80
2019-06-20T19:15:42.468Z,19.90
2019-06-20T19:18:10.620Z,20.83
2019-06-20T19:20:40.421Z,19.20
2019-06-20T19:23:08.564Z,16.97
2019-06-20T19:25:36.899Z,16.43
2019-06-20T19:28:05.124Z,19.67
2019-06-20T19:30:34.887Z,19.33
2019-06-20T19:33:03.092Z,17.80
2019-06-20T19:35:31.245Z,16.87
2019-06-20T19:37:59.452Z,14.77
2019-06-20T19:40:29.149Z,18.97
2019-06-20T19:42:57.396Z,18.47
2019-06-20T19:45:25.667Z,17.33
2019-06-20T19:47:53.875Z,14.80
2019-06-20T19:50:22.048Z,17.53
2019-06-20T19:52:50.255Z,15.63
2019-06-20T19:55:18.474Z,15.23
2019-06-20T19:57:46.626Z,20.43
2019-06-20T20:00:15.241Z,15.80
2019-06-20T20:02:43.478Z,17.63
2019-06-20T20:05:19.070Z,16.00
2019-06-20T20:07:41.823Z,16.80
2019-06-20T20:10:10.393Z,16.10
2019-06-20T20:12:38.575Z,18.90
2019-06-20T20:15:08.400Z,23.57
2019-06-20T20:17:36.539Z,21.00
2019-06-20T20:20:08.053Z,17.33
2019-06-20T20:22:36.219Z,17.50
2019-06-20T20:25:07.663Z,25.53
2019-06-20T20:27:35.851Z,19.53
2019-06-20T20:30:05.571Z,14.03
2019-06-20T20:32:33.755Z,16.63
2019-06-20T20:35:02.004Z,18.10
2019-06-20T20:37:30.251Z,17.50
2019-06-20T20:39:58.500Z,14.47
2019-06-20T20:42:26.662Z,15.67
2019-06-20T20:44:55.158Z,16.87
2019-06-20T20:47:23.306Z,14.43
2019-06-20T20:49:51.460Z,12.97
2019-06-20T20:52:19.599Z,16.60
2019-06-20T20:54:47.742Z,16.70
2019-06-20T20:57:15.933Z,13.73
2019-06-20T20:59:44.067Z,14.97
2019-06-20T21:02:12.206Z,13.70
2019-06-20T21:04:40.358Z,21.40
2019-06-20T21:07:08.598Z,14.03
2019-06-20T21:09:36.842Z,16.10
2019-06-20T21:12:04.994Z,21.93
2019-06-20T21:14:33.154Z,18.57
2019-06-20T21:17:01.380Z,16.10
2019-06-20T21:19:29.520Z,14.40
2019-06-20T21:21:58.029Z,16.33
2019-06-20T21:24:26.179Z,14.93
2019-06-20T21:26:54.419Z,18.67
2019-06-20T21:29:22.579Z,18.10
2019-06-20T21:31:50.721Z,17.93
2019-06-20T21:34:18.943Z,17.10
2019-06-20T21:36:47.077Z,15.10
2019-06-20T21:39:15.240Z,16.17
2019-06-20T21:41:43.380Z,16.87
2019-06-20T21:44:11.535Z,17.50
2019-06-20T21:46:39.675Z,14.77
2019-06-20T21:49:07.833Z,16.47
2019-06-20T21:51:36.030Z,22.80
2019-06-20T21:54:04.451Z,23.23
2019-06-20T21:56:32.624Z,15.57
2019-06-20T21:59:00.823Z,16.77
2019-06-20T22:01:29.132Z,15.93
2019-06-20T22:03:57.950Z,16.73
2019-06-20T22:06:26.284Z,20.27
2019-06-20T22:08:54.434Z,16.87
2019-06-20T22:11:22.574Z,15.03
2019-06-20T22:13:50.810Z,22.13
2019-06-20T22:16:19.091Z,18.20
2019-06-20T22:18:47.233Z,18.33
2019-06-20T22:21:15.392Z,18.23
2019-06-20T22:23:43.559Z,15.80
2019-06-20T22:26:12.054Z,17.50
2019-06-20T22:28:40.310Z,18.93
2019-06-20T22:31:08.524Z,16.97
2019-06-20T22:33:36.670Z,13.43
2019-06-20T22:36:04.895Z,18.00
2019-06-20T22:38:33.556Z,19.57
2019-06-20T22:41:01.746Z,15.03
2019-06-20T22:43:29.907Z,17.50
2019-06-20T22:45:58.043Z,19.73
2019-06-20T22:48:26.217Z,16.53
2019-06-20T22:50:54.503Z,16.23
2019-06-20T22:53:23.267Z,19.43
2019-06-20T22:55:51.432Z,17.93
2019-06-20T22:58:19.576Z,20.70
2019-06-20T23:00:47.889Z,16.70
2019-06-20T23:03:17.321Z,15.57
2019-06-20T23:05:45.472Z,14.07
2019-06-20T23:08:13.615Z,19.47
2019-06-20T23:10:41.835Z,17.07
2019-06-20T23:13:10.093Z,23.30
2019-06-20T23:15:38.549Z,15.40
2019-06-20T23:18:06.679Z,22.40
2019-06-20T23:20:34.912Z,16.67
2019-06-20T23:23:03.050Z,18.17
2019-06-20T23:25:31.663Z,16.23
2019-06-20T23:27:59.820Z,13.23
2019-06-20T23:30:28.533Z,19.13
2019-06-20T23:32:56.702Z,13.60
2019-06-20T23:35:24.840Z,16.33
2019-06-20T23:37:52.993Z,15.43
2019-06-20T23:40:21.275Z,14.83
2019-06-20T23:42:49.419Z,19.20
2019-06-20T23:45:18.948Z,13.67
2019-06-20T23:47:47.094Z,18.07
2019-06-20T23:50:20.768Z,19.27
2019-06-20T23:52:56.745Z,14.37
2019-06-20T23:55:25.009Z,16.63
2019-06-20T23:57:53.150Z,15.70
